Terminal Aerodrome Forecast
Issued by NWS

Home | Current Version | Previous Version | Text Only | Print | Product List | Glossary Off
Versions: 1 2 3 4 5 6 7 8 9 10 11 12 13 14 15 16 17 18

000
FTUS43 KIWX 292300
TAFSBN
TAF
KSBN 292338Z 3000/3024 33013KT 5SM BR BKN015 OVC025
     FM300300 31014G20KT 3SM -SHSN OVC025
     FM301000 34012KT P6SM OVC030=

USA.gov is the U.S. government's official web portal to all federal, state and local government web resources and services.